Time;durP1;ratioP1;P1;durP2;ratioP2;P2;SDS_P1;SDS_P2;PMS_P1;PMS_P2;Temp;Humidity;BMP_temperature;BMP_pressure;BME280_temperature;BME280_humidity;BME280_pressure;Samples;Min_cycle;Max_cycle;Signal;HPM_P1;HPM_P2
2023/01/09 00:00:27;;;;;;;5.03;2.33;;;11.40;99.90;;;;;;5016279;28;20192;-80
2023/01/09 00:02:52;;;;;;;2.50;1.70;;;11.40;99.90;;;;;;5010114;28;20259;-81
2023/01/09 00:05:19;;;;;;;3.57;2.07;;;11.40;99.90;;;;;;5018776;28;20434;-79
2023/01/09 00:07:44;;;;;;;3.33;1.50;;;11.30;99.90;;;;;;5011291;28;20205;-80
2023/01/09 00:10:11;;;;;;;2.67;1.67;;;11.10;99.90;;;;;;5018822;28;20447;-79
2023/01/09 00:12:37;;;;;;;2.63;1.80;;;11.20;99.90;;;;;;5016533;28;20768;-79
2023/01/09 00:15:04;;;;;;;3.53;1.43;;;11.10;99.90;;;;;;5016317;28;20455;-79
2023/01/09 00:17:29;;;;;;;2.00;1.40;;;11.10;99.90;;;;;;5017060;28;20467;-78
2023/01/09 00:19:55;;;;;;;2.67;1.77;;;11.20;99.90;;;;;;5016868;28;20442;-79
2023/01/09 00:22:20;;;;;;;1.83;1.37;;;11.20;99.90;;;;;;5015811;28;20208;-79
2023/01/09 00:24:46;;;;;;;1.60;1.10;;;11.10;99.90;;;;;;5015971;28;20552;-79
2023/01/09 00:27:13;;;;;;;1.53;1.00;;;11.10;99.90;;;;;;5017157;28;20306;-79
2023/01/09 00:29:40;;;;;;;2.00;1.40;;;11.20;99.90;;;;;;5018227;28;20315;-79
2023/01/09 00:32:08;;;;;;;2.07;1.27;;;11.20;99.90;;;;;;5017237;28;20458;-79
2023/01/09 00:34:36;;;;;;;1.47;1.10;;;11.20;99.90;;;;;;5019128;28;20525;-78
2023/01/09 00:37:02;;;;;;;1.70;1.07;;;11.30;99.90;;;;;;5016352;28;20459;-78
2023/01/09 00:39:28;;;;;;;6.10;1.10;;;11.30;99.90;;;;;;5022779;28;20861;-78
2023/01/09 00:41:55;;;;;;;1.60;1.10;;;11.30;99.90;;;;;;5018688;28;20439;-78
2023/01/09 00:44:23;;;;;;;1.43;1.00;;;11.30;99.90;;;;;;5025904;28;20263;-78
2023/01/09 00:46:53;;;;;;;2.00;1.00;;;11.30;99.90;;;;;;5020562;28;20526;-80
2023/01/09 00:49:20;;;;;;;3.30;1.10;;;11.30;99.90;;;;;;5020275;28;21150;-80
2023/01/09 00:51:46;;;;;;;1.80;1.20;;;11.30;99.90;;;;;;5019447;28;20451;-79
2023/01/09 00:54:15;;;;;;;2.33;0.97;;;11.20;99.90;;;;;;5018882;28;20862;-77
2023/01/09 00:56:41;;;;;;;1.70;1.00;;;11.20;99.90;;;;;;5016714;28;20453;-76
2023/01/09 00:59:07;;;;;;;1.47;1.00;;;11.20;99.90;;;;;;5018131;28;20442;-77
2023/01/09 01:01:32;;;;;;;1.40;0.93;;;11.10;99.90;;;;;;5016126;28;20442;-77
2023/01/09 01:03:58;;;;;;;2.10;1.20;;;11.00;99.90;;;;;;5019697;28;20961;-77
2023/01/09 01:09:08;;;;;;;2.77;1.20;;;11.10;99.90;;;;;;5012850;28;20232;-76
2023/01/09 01:11:33;;;;;;;1.40;0.97;;;11.00;99.90;;;;;;5015097;28;20451;-77
2023/01/09 01:14:00;;;;;;;1.50;1.00;;;11.00;99.90;;;;;;5014627;28;20750;-76
2023/01/09 01:16:26;;;;;;;1.80;1.10;;;11.00;99.90;;;;;;5017614;28;20207;-76
2023/01/09 01:18:51;;;;;;;1.60;1.00;;;10.90;99.90;;;;;;5015220;28;20443;-77
2023/01/09 01:21:17;;;;;;;1.60;1.20;;;10.80;99.90;;;;;;5014574;28;20197;-78
2023/01/09 01:23:43;;;;;;;1.50;1.10;;;10.80;99.90;;;;;;5017085;28;20181;-77
2023/01/09 01:26:12;;;;;;;1.50;1.10;;;10.80;99.90;;;;;;5019769;28;20231;-76
2023/01/09 01:28:37;;;;;;;2.63;1.10;;;10.80;99.90;;;;;;5016867;28;20506;-79
2023/01/09 01:31:03;;;;;;;1.93;1.10;;;10.70;99.90;;;;;;5022880;28;20505;-79
2023/01/09 01:33:30;;;;;;;1.83;1.20;;;10.70;99.90;;;;;;5018192;28;20276;-78
2023/01/09 01:36:06;;;;;;;2.00;1.23;;;10.80;99.90;;;;;;5017740;28;20458;-79
2023/01/09 01:38:33;;;;;;;1.70;1.20;;;10.80;99.90;;;;;;5010362;28;20447;-79
2023/01/09 01:40:59;;;;;;;1.70;1.00;;;10.80;99.90;;;;;;5016215;28;20990;-79
2023/01/09 01:43:25;;;;;;;1.63;1.00;;;10.80;99.90;;;;;;5021167;28;20416;-79
2023/01/09 01:45:50;;;;;;;1.60;1.10;;;10.80;99.90;;;;;;5019426;28;20441;-78
2023/01/09 01:48:22;;;;;;;2.00;1.27;;;10.90;99.90;;;;;;5017285;28;20787;-79
2023/01/09 01:51:00;;;;;;;2.73;1.00;;;10.90;99.90;;;;;;5013136;28;20200;-79
2023/01/09 01:53:40;;;;;;;1.97;1.07;;;10.90;99.90;;;;;;5018440;28;20504;-78
2023/01/09 01:56:15;;;;;;;1.40;0.90;;;11.00;99.90;;;;;;5015149;28;20846;-78
2023/01/09 01:58:58;;;;;;;1.50;1.00;;;10.90;99.90;;;;;;5019775;28;20422;-81
2023/01/09 02:01:24;;;;;;;1.80;1.20;;;10.90;99.90;;;;;;5018457;28;20494;-80
2023/01/09 02:03:53;;;;;;;2.50;1.10;;;10.80;99.90;;;;;;5018489;28;20485;-79
2023/01/09 02:06:19;;;;;;;1.60;1.00;;;10.80;99.90;;;;;;5020583;28;20677;-79
2023/01/09 02:08:45;;;;;;;1.60;1.10;;;10.90;99.90;;;;;;5015508;28;20467;-76
2023/01/09 02:11:13;;;;;;;2.40;1.13;;;11.00;99.90;;;;;;5018357;28;20646;-77
2023/01/09 02:13:39;;;;;;;1.80;1.20;;;11.00;99.90;;;;;;5014100;28;20510;-77
2023/01/09 02:16:36;;;;;;;1.80;1.10;;;10.90;99.90;;;;;;5015455;28;20459;-77
2023/01/09 02:19:47;;;;;;;1.70;1.17;;;10.90;99.90;;;;;;5019985;28;20442;-76
2023/01/09 02:22:34;;;;;;;1.50;1.10;;;10.80;99.90;;;;;;5008821;28;20439;-76
2023/01/09 02:25:28;;;;;;;1.50;1.00;;;10.70;99.90;;;;;;5008386;28;20455;-76
2023/01/09 02:28:28;;;;;;;1.87;1.30;;;10.70;99.90;;;;;;5016139;28;20478;-76
2023/01/09 02:30:56;;;;;;;2.03;1.37;;;10.80;99.90;;;;;;5019521;28;20475;-77
2023/01/09 02:33:50;;;;;;;4.20;1.40;;;10.80;99.90;;;;;;5017635;28;20423;-77
2023/01/09 02:36:37;;;;;;;1.60;1.10;;;10.60;99.90;;;;;;5019784;28;20541;-76
2023/01/09 02:39:05;;;;;;;2.10;1.17;;;10.70;99.90;;;;;;5018699;28;20431;-76
2023/01/09 02:42:02;;;;;;;2.10;1.30;;;10.70;99.90;;;;;;5020834;28;20472;-77
2023/01/09 02:44:34;;;;;;;1.70;1.20;;;10.70;99.90;;;;;;5021724;28;20435;-77
2023/01/09 02:47:00;;;;;;;1.60;1.20;;;10.80;99.90;;;;;;5020060;28;20542;-76
2023/01/09 02:49:26;;;;;;;2.13;1.30;;;10.70;99.90;;;;;;5020791;28;20550;-76
2023/01/09 02:52:00;;;;;;;1.90;1.13;;;10.60;99.90;;;;;;5024871;28;20200;-75
2023/01/09 02:54:53;;;;;;;1.90;1.50;;;10.60;99.90;;;;;;5019229;28;20804;-76
2023/01/09 02:57:50;;;;;;;2.80;1.63;;;10.50;99.90;;;;;;5017113;28;20435;-76
2023/01/09 03:00:28;;;;;;;1.90;1.23;;;10.50;99.90;;;;;;5019862;28;20435;-76
2023/01/09 03:03:08;;;;;;;2.00;1.10;;;10.30;99.90;;;;;;5015417;28;20431;-75
2023/01/09 03:05:42;;;;;;;3.00;1.20;;;10.00;99.90;;;;;;5015782;28;20604;-75
2023/01/09 03:08:13;;;;;;;1.60;1.17;;;9.90;99.90;;;;;;5020057;28;20481;-75
2023/01/09 03:11:03;;;;;;;1.80;1.20;;;9.80;99.90;;;;;;5012702;28;20512;-77
2023/01/09 03:13:33;;;;;;;1.60;1.10;;;9.80;99.90;;;;;;5019615;28;20773;-77
2023/01/09 03:16:04;;;;;;;1.60;1.10;;;9.80;99.90;;;;;;5014665;28;20514;-77
2023/01/09 03:18:31;;;;;;;1.80;1.10;;;9.70;99.90;;;;;;5018236;28;20463;-77
2023/01/09 03:20:57;;;;;;;1.50;0.97;;;9.50;99.90;;;;;;5012502;28;20447;-77
2023/01/09 03:23:22;;;;;;;1.50;1.00;;;9.50;99.90;;;;;;5020680;28;20469;-78
2023/01/09 03:25:48;;;;;;;1.50;0.93;;;9.40;99.90;;;;;;5014370;28;20232;-79
2023/01/09 03:28:26;;;;;;;1.60;1.10;;;9.40;99.90;;;;;;5015419;28;20212;-78
2023/01/09 03:30:52;;;;;;;2.40;1.20;;;9.40;99.90;;;;;;5011591;28;20833;-78
2023/01/09 03:33:18;;;;;;;2.10;1.10;;;9.30;99.90;;;;;;5015743;28;20435;-79
2023/01/09 03:35:43;;;;;;;1.60;1.00;;;9.30;99.90;;;;;;5015382;28;20836;-78
2023/01/09 03:38:09;;;;;;;1.53;0.93;;;9.30;99.90;;;;;;5015504;28;20478;-78
2023/01/09 03:40:35;;;;;;;1.50;1.10;;;9.40;99.90;;;;;;5015899;28;20212;-79
2023/01/09 03:43:00;;;;;;;1.40;1.00;;;9.30;99.90;;;;;;5016269;28;20191;-79
2023/01/09 03:45:26;;;;;;;3.00;0.90;;;9.40;99.90;;;;;;5016888;28;20227;-77
2023/01/09 03:47:51;;;;;;;1.57;1.00;;;9.40;99.90;;;;;;5019186;28;20573;-77
2023/01/09 03:50:17;;;;;;;1.70;1.00;;;9.40;99.90;;;;;;5017781;28;20900;-78
2023/01/09 03:52:43;;;;;;;1.40;1.00;;;9.40;99.90;;;;;;5017714;28;20255;-78
2023/01/09 03:55:08;;;;;;;2.13;1.10;;;9.50;99.90;;;;;;5017009;28;20190;-78
2023/01/09 03:57:34;;;;;;;1.47;1.03;;;9.50;99.90;;;;;;5016797;28;20200;-79
2023/01/09 03:59:59;;;;;;;5.00;1.17;;;9.50;99.90;;;;;;5015502;28;20176;-76
2023/01/09 04:02:25;;;;;;;1.90;1.10;;;9.50;99.90;;;;;;5022013;28;20195;-75
2023/01/09 04:04:51;;;;;;;6.30;1.00;;;9.40;99.90;;;;;;5026054;28;20238;-75
2023/01/09 04:07:16;;;;;;;4.33;1.10;;;9.50;99.90;;;;;;5022969;28;20717;-79
2023/01/09 04:09:42;;;;;;;1.57;1.00;;;9.40;99.90;;;;;;5017607;28;20240;-79
2023/01/09 04:12:07;;;;;;;2.77;1.10;;;9.40;99.90;;;;;;5021607;28;20191;-79
2023/01/09 04:14:33;;;;;;;1.70;1.20;;;9.40;99.90;;;;;;5020696;28;20199;-77
2023/01/09 04:16:58;;;;;;;1.73;1.20;;;9.40;99.90;;;;;;5019864;28;20212;-77
2023/01/09 04:19:24;;;;;;;3.20;1.13;;;9.20;99.90;;;;;;5018128;28;20189;-76
2023/01/09 04:21:50;;;;;;;4.50;1.10;;;9.30;99.90;;;;;;5019259;28;20654;-77
2023/01/09 04:24:15;;;;;;;2.73;1.10;;;9.30;99.90;;;;;;5016347;28;20549;-76
2023/01/09 04:26:41;;;;;;;1.60;1.00;;;9.40;99.90;;;;;;5014625;28;20467;-77
2023/01/09 04:29:07;;;;;;;2.70;1.40;;;9.40;99.90;;;;;;5024885;28;20204;-77
2023/01/09 04:31:32;;;;;;;1.50;1.30;;;9.30;99.90;;;;;;5020169;28;20184;-79
2023/01/09 04:33:58;;;;;;;3.40;1.00;;;9.40;99.90;;;;;;5020550;28;20192;-78
2023/01/09 04:36:23;;;;;;;1.40;0.90;;;9.30;99.90;;;;;;5016961;28;20254;-78
2023/01/09 04:38:49;;;;;;;1.70;0.97;;;9.30;99.90;;;;;;5017500;28;20188;-78
2023/01/09 04:41:47;;;;;;;1.50;1.10;;;9.30;99.90;;;;;;5020855;28;20188;-80
2023/01/09 04:44:00;;;;;;;3.80;1.47;;;9.20;99.90;;;;;;5016982;28;20977;-80
2023/01/09 04:46:25;;;;;;;2.37;1.00;;;9.30;99.90;;;;;;5019675;28;20611;-80
2023/01/09 04:48:51;;;;;;;2.03;1.10;;;9.30;99.90;;;;;;5018112;28;20307;-80
2023/01/09 04:51:16;;;;;;;3.50;1.20;;;9.30;99.90;;;;;;5020390;28;20212;-80
2023/01/09 04:53:42;;;;;;;1.40;1.00;;;9.30;99.90;;;;;;5015338;28;20271;-80
2023/01/09 04:56:08;;;;;;;1.97;1.30;;;9.30;99.90;;;;;;5018360;28;20216;-79
2023/01/09 04:58:33;;;;;;;2.50;1.10;;;9.20;99.90;;;;;;5013799;28;20247;-75
2023/01/09 05:00:59;;;;;;;3.57;1.30;;;9.20;99.90;;;;;;5016308;28;20561;-75
2023/01/09 05:03:24;;;;;;;1.70;1.00;;;9.20;99.90;;;;;;5016825;28;20212;-75
2023/01/09 05:05:50;;;;;;;2.53;1.30;;;9.20;99.90;;;;;;5021749;28;20212;-76
2023/01/09 05:08:16;;;;;;;3.60;1.10;;;9.00;99.90;;;;;;5015938;28;20208;-76
2023/01/09 05:10:41;;;;;;;1.50;0.97;;;9.00;99.90;;;;;;5021746;28;20706;-76
2023/01/09 05:13:07;;;;;;;1.67;1.10;;;9.00;99.90;;;;;;5012650;28;20208;-76
2023/01/09 05:15:32;;;;;;;1.90;1.10;;;9.00;99.90;;;;;;5019478;28;20732;-76
2023/01/09 05:17:58;;;;;;;1.80;1.10;;;9.10;99.90;;;;;;5016379;28;20258;-76
2023/01/09 05:20:23;;;;;;;1.70;1.10;;;9.10;99.90;;;;;;5020874;28;20561;-76
2023/01/09 05:22:49;;;;;;;2.50;1.10;;;9.00;99.90;;;;;;5016210;28;20299;-76
2023/01/09 05:25:14;;;;;;;4.40;1.33;;;8.80;99.90;;;;;;5019006;28;20601;-76
2023/01/09 05:27:44;;;;;;;1.90;1.27;;;8.90;99.90;;;;;;5017228;28;20192;-78
2023/01/09 05:30:11;;;;;;;1.63;1.03;;;8.90;99.90;;;;;;5016930;28;21433;-78
2023/01/09 05:32:37;;;;;;;2.00;1.10;;;8.90;99.90;;;;;;5017562;28;20431;-78
2023/01/09 05:35:03;;;;;;;1.60;1.07;;;8.80;99.90;;;;;;5014506;28;20493;-78
2023/01/09 05:37:28;;;;;;;2.10;1.00;;;8.80;99.90;;;;;;5016451;28;20270;-77
2023/01/09 05:39:54;;;;;;;1.90;1.10;;;8.80;99.90;;;;;;5014741;28;20189;-77
2023/01/09 05:42:19;;;;;;;2.23;1.00;;;8.80;99.90;;;;;;5016412;28;20223;-77
2023/01/09 05:44:45;;;;;;;1.70;1.00;;;8.80;99.90;;;;;;5016305;28;20208;-77
2023/01/09 05:47:11;;;;;;;4.50;1.57;;;8.80;99.90;;;;;;5016217;28;20335;-77
2023/01/09 05:49:36;;;;;;;1.63;1.23;;;8.80;99.90;;;;;;5019445;28;20220;-78
2023/01/09 05:52:02;;;;;;;5.00;1.27;;;8.80;99.90;;;;;;5016464;28;20204;-77
2023/01/09 05:54:27;;;;;;;1.50;1.00;;;8.80;99.90;;;;;;5017871;28;20184;-77
2023/01/09 05:56:53;;;;;;;2.63;1.07;;;8.80;99.90;;;;;;5013835;28;20757;-76
2023/01/09 05:59:19;;;;;;;1.70;1.10;;;8.80;99.90;;;;;;5015426;28;20200;-77
2023/01/09 06:01:44;;;;;;;1.70;1.17;;;8.80;99.90;;;;;;5018051;28;20250;-78
2023/01/09 06:04:10;;;;;;;1.60;1.20;;;8.70;99.90;;;;;;5015456;28;20192;-78
2023/01/09 06:06:35;;;;;;;2.80;1.10;;;8.80;99.90;;;;;;5018114;28;20215;-77
2023/01/09 06:09:02;;;;;;;1.90;1.03;;;8.90;99.90;;;;;;5016361;28;20223;-78
2023/01/09 06:11:28;;;;;;;6.13;1.10;;;8.90;99.90;;;;;;5015480;28;20180;-78
2023/01/09 06:13:53;;;;;;;2.23;1.00;;;8.90;99.90;;;;;;5010657;28;20423;-78
2023/01/09 06:16:19;;;;;;;2.57;1.30;;;8.90;99.90;;;;;;5020121;28;20196;-76
2023/01/09 06:18:45;;;;;;;2.30;1.20;;;8.90;99.90;;;;;;5018279;28;20634;-76
2023/01/09 06:21:10;;;;;;;1.80;1.23;;;8.90;99.90;;;;;;5016323;28;20196;-76
2023/01/09 06:23:36;;;;;;;3.20;1.43;;;8.90;99.90;;;;;;5017136;28;20449;-76
2023/01/09 06:26:02;;;;;;;3.40;1.30;;;8.90;99.90;;;;;;5015955;28;20208;-76
2023/01/09 06:28:27;;;;;;;3.57;1.20;;;8.90;99.90;;;;;;5013567;28;20298;-75
2023/01/09 06:30:53;;;;;;;2.90;1.43;;;8.80;99.90;;;;;;5009906;28;20193;-75
2023/01/09 06:33:19;;;;;;;2.53;1.37;;;8.80;99.90;;;;;;5012957;28;20189;-75
2023/01/09 06:35:45;;;;;;;2.63;1.13;;;8.90;99.90;;;;;;5016678;28;20196;-76
2023/01/09 06:38:11;;;;;;;4.60;1.60;;;8.90;99.90;;;;;;5009164;28;20516;-75
2023/01/09 06:40:36;;;;;;;3.00;1.27;;;8.90;99.90;;;;;;5016550;28;20192;-75
2023/01/09 06:43:02;;;;;;;2.07;1.20;;;8.80;99.90;;;;;;5016564;28;20442;-76
2023/01/09 06:45:27;;;;;;;3.63;1.50;;;8.70;99.90;;;;;;5016896;28;21576;-76
2023/01/09 06:47:53;;;;;;;4.40;1.40;;;8.70;99.90;;;;;;5009597;28;20334;-76
2023/01/09 06:50:19;;;;;;;1.70;1.20;;;8.80;99.90;;;;;;5016329;28;20196;-76
2023/01/09 06:52:45;;;;;;;8.30;1.40;;;8.70;99.90;;;;;;5018128;28;20344;-76
2023/01/09 06:55:10;;;;;;;5.10;1.80;;;8.70;99.90;;;;;;5018542;28;20191;-76
2023/01/09 06:57:36;;;;;;;2.57;1.20;;;8.70;99.90;;;;;;5012937;28;20208;-76
2023/01/09 07:00:03;;;;;;;5.37;1.20;;;8.70;99.90;;;;;;5011344;28;20197;-75
2023/01/09 07:02:29;;;;;;;2.97;1.40;;;8.70;99.90;;;;;;5013946;28;20195;-76
2023/01/09 07:04:54;;;;;;;15.47;1.63;;;8.90;99.90;;;;;;5012944;28;20443;-76
2023/01/09 07:07:21;;;;;;;3.53;1.33;;;8.90;99.90;;;;;;5019090;28;20203;-76
2023/01/09 07:09:47;;;;;;;5.63;1.67;;;8.80;99.90;;;;;;5017756;28;20213;-77
2023/01/09 07:12:14;;;;;;;3.23;1.63;;;8.80;99.90;;;;;;5016555;28;20449;-77
2023/01/09 07:14:39;;;;;;;3.70;1.43;;;8.80;99.90;;;;;;5013354;28;20870;-76
2023/01/09 07:17:05;;;;;;;6.50;2.30;;;8.80;99.90;;;;;;5011814;28;20488;-76
2023/01/09 07:19:31;;;;;;;4.30;1.60;;;8.80;99.90;;;;;;5014640;28;20189;-80
2023/01/09 07:21:56;;;;;;;4.90;1.23;;;8.80;99.90;;;;;;5036019;28;20188;-79
2023/01/09 07:24:22;;;;;;;6.07;1.37;;;8.90;99.90;;;;;;5029513;28;20246;-78
2023/01/09 07:26:47;;;;;;;2.37;1.40;;;8.80;99.90;;;;;;5034865;28;20223;-79
2023/01/09 07:29:13;;;;;;;5.10;1.80;;;8.90;99.90;;;;;;5015398;28;20648;-76
2023/01/09 07:31:38;;;;;;;7.17;1.50;;;8.90;99.90;;;;;;5015111;28;20192;-77
2023/01/09 07:34:04;;;;;;;4.90;1.70;;;9.00;99.90;;;;;;5014303;28;20188;-76
2023/01/09 07:36:30;;;;;;;3.90;1.93;;;9.00;99.90;;;;;;5013060;28;20705;-76
2023/01/09 07:38:55;;;;;;;2.23;1.20;;;9.10;99.90;;;;;;5017749;28;20196;-75
2023/01/09 07:41:21;;;;;;;6.20;1.10;;;9.00;99.90;;;;;;5021991;28;20222;-74
2023/01/09 07:43:46;;;;;;;3.87;1.60;;;9.10;99.90;;;;;;5017924;28;20612;-74
2023/01/09 07:46:12;;;;;;;2.83;1.30;;;9.10;99.90;;;;;;5015747;28;20215;-74
2023/01/09 07:48:38;;;;;;;2.03;1.33;;;9.10;99.90;;;;;;5017760;28;20199;-72
2023/01/09 07:51:04;;;;;;;3.27;1.30;;;9.10;99.90;;;;;;5016752;28;20199;-75
2023/01/09 07:53:30;;;;;;;7.80;1.70;;;9.20;99.90;;;;;;5018776;28;20195;-79
2023/01/09 07:55:56;;;;;;;6.23;1.20;;;9.20;99.90;;;;;;5021213;28;20447;-79
2023/01/09 07:58:21;;;;;;;2.20;1.40;;;9.20;99.90;;;;;;5023872;28;20282;-80
2023/01/09 08:00:47;;;;;;;3.23;1.70;;;9.20;99.90;;;;;;5026915;28;20233;-76
2023/01/09 08:03:12;;;;;;;8.10;1.40;;;9.20;99.90;;;;;;5017955;28;20196;-76
2023/01/09 08:05:38;;;;;;;6.03;1.60;;;9.20;99.90;;;;;;5021891;28;20216;-81
2023/01/09 08:08:03;;;;;;;6.23;1.63;;;9.30;99.90;;;;;;5019492;28;20702;-78
2023/01/09 08:10:29;;;;;;;3.53;1.63;;;9.30;99.90;;;;;;5028152;28;20183;-79
2023/01/09 08:12:55;;;;;;;2.70;1.50;;;9.30;99.90;;;;;;5026843;28;20176;-75
2023/01/09 08:15:21;;;;;;;9.77;1.57;;;9.40;99.90;;;;;;5015673;28;20470;-75
2023/01/09 08:17:46;;;;;;;3.30;1.60;;;9.40;99.90;;;;;;5017256;28;20184;-75
2023/01/09 08:20:14;;;;;;;5.60;1.33;;;9.50;99.90;;;;;;5015654;28;20733;-74
2023/01/09 08:22:41;;;;;;;4.13;1.73;;;9.50;99.90;;;;;;5014334;28;20191;-76
2023/01/09 08:25:08;;;;;;;3.47;1.40;;;9.50;99.90;;;;;;5015171;28;20458;-78
2023/01/09 08:27:33;;;;;;;5.20;1.40;;;9.50;99.90;;;;;;5020871;28;20455;-75
2023/01/09 08:29:59;;;;;;;2.30;1.53;;;9.60;99.90;;;;;;5014017;28;20490;-76
2023/01/09 08:32:25;;;;;;;2.83;1.40;;;9.40;99.90;;;;;;5014506;28;20184;-75
2023/01/09 08:34:51;;;;;;;3.40;1.40;;;9.50;99.90;;;;;;5018586;28;20509;-72
2023/01/09 08:37:17;;;;;;;2.80;1.50;;;9.50;99.90;;;;;;5012536;28;20465;-72
2023/01/09 08:39:42;;;;;;;3.87;1.70;;;9.50;99.90;;;;;;5016878;28;20443;-72
2023/01/09 08:47:38;;;;;;;2.93;1.27;;;9.50;99.90;;;;;;5015018;28;20457;-76
2023/01/09 08:50:04;;;;;;;3.40;1.50;;;9.50;99.90;;;;;;5019281;28;20549;-73
2023/01/09 08:52:30;;;;;;;2.00;1.40;;;9.50;99.90;;;;;;5019802;28;20453;-78
2023/01/09 08:54:56;;;;;;;2.77;1.30;;;9.50;99.90;;;;;;5014148;28;20434;-74
2023/01/09 08:57:22;;;;;;;4.60;1.57;;;9.50;99.90;;;;;;5018704;28;20212;-75
2023/01/09 08:59:47;;;;;;;3.13;1.20;;;9.60;99.90;;;;;;5020988;28;20501;-75
2023/01/09 09:02:13;;;;;;;4.00;1.20;;;9.60;99.90;;;;;;5012496;28;20684;-72
2023/01/09 09:04:39;;;;;;;2.60;1.30;;;9.60;99.90;;;;;;5021634;28;20267;-73
2023/01/09 09:07:05;;;;;;;2.37;1.30;;;9.60;99.90;;;;;;5018975;28;20210;-72
2023/01/09 09:09:30;;;;;;;3.50;1.20;;;9.60;99.90;;;;;;5017049;28;20212;-76
2023/01/09 09:11:56;;;;;;;3.90;1.50;;;9.60;99.90;;;;;;5013772;28;20188;-76
2023/01/09 09:17:05;;;;;;;3.10;1.50;;;9.70;99.90;;;;;;5013597;28;20577;-75
2023/01/09 09:19:31;;;;;;;3.33;1.67;;;9.80;99.90;;;;;;5015942;28;20439;-73
2023/01/09 09:21:56;;;;;;;2.80;1.50;;;9.80;99.90;;;;;;5015122;28;20685;-74
2023/01/09 09:24:22;;;;;;;2.60;1.40;;;9.80;99.90;;;;;;5015462;28;20187;-77
2023/01/09 09:26:47;;;;;;;2.20;1.43;;;9.80;99.90;;;;;;5018560;28;20205;-74
2023/01/09 09:29:13;;;;;;;4.53;1.50;;;9.80;99.90;;;;;;5015939;28;20265;-73
2023/01/09 09:31:39;;;;;;;2.93;1.37;;;9.80;99.90;;;;;;5021471;28;20629;-73
2023/01/09 09:34:06;;;;;;;3.00;1.53;;;9.90;99.90;;;;;;5012646;28;20235;-70
2023/01/09 09:36:31;;;;;;;3.43;1.50;;;9.90;99.90;;;;;;5003538;28;20613;-72
2023/01/09 09:38:57;;;;;;;3.90;1.60;;;9.90;99.90;;;;;;5008710;28;20501;-78
2023/01/09 09:44:45;;;;;;;3.30;1.50;;;10.00;99.90;;;;;;5015304;28;20951;-72
2023/01/09 09:47:29;;;;;;;3.67;1.70;;;10.00;99.90;;;;;;5014459;28;21716;-77
2023/01/09 09:50:09;;;;;;;2.07;1.40;;;10.10;99.90;;;;;;5017694;28;20525;-74
2023/01/09 09:52:48;;;;;;;2.80;1.30;;;9.80;99.90;;;;;;5020705;28;20419;-75
2023/01/09 09:55:21;;;;;;;4.50;1.43;;;9.90;99.90;;;;;;5015307;28;20450;-75
2023/01/09 09:57:50;;;;;;;5.10;1.50;;;9.90;99.90;;;;;;5011653;28;20436;-76
2023/01/09 10:00:20;;;;;;;2.93;1.40;;;10.00;99.90;;;;;;5021327;28;20514;-77
2023/01/09 10:02:55;;;;;;;2.50;1.30;;;10.10;99.90;;;;;;5018041;28;20518;-76
2023/01/09 10:05:43;;;;;;;4.83;1.40;;;10.00;99.90;;;;;;5016274;28;20775;-76
2023/01/09 10:08:21;;;;;;;2.00;1.40;;;10.10;99.90;;;;;;5011898;28;20565;-75
2023/01/09 10:10:52;;;;;;;2.33;1.50;;;10.10;99.90;;;;;;5021899;28;20450;-71
2023/01/09 10:16:06;;;;;;;3.77;1.57;;;10.20;99.90;;;;;;5014025;28;20548;-75
2023/01/09 10:18:53;;;;;;;3.83;1.40;;;10.20;99.90;;;;;;5016745;28;20412;-78
2023/01/09 10:21:46;;;;;;;5.83;1.37;;;10.20;99.90;;;;;;5018114;28;20184;-75
2023/01/09 10:24:26;;;;;;;3.10;1.50;;;10.20;99.90;;;;;;5016429;28;20446;-78
2023/01/09 10:26:55;;;;;;;3.50;1.83;;;10.30;99.90;;;;;;5015747;28;20869;-74
2023/01/09 10:29:41;;;;;;;3.40;1.40;;;10.40;99.90;;;;;;5015904;28;20462;-75
2023/01/09 10:32:36;;;;;;;5.50;1.60;;;10.40;99.90;;;;;;5019976;28;20426;-73
2023/01/09 10:35:09;;;;;;;4.13;1.40;;;10.50;99.90;;;;;;5019983;28;20435;-76
2023/01/09 10:37:46;;;;;;;3.23;1.50;;;10.50;99.90;;;;;;5015182;28;20548;-77
2023/01/09 10:40:35;;;;;;;4.47;1.73;;;10.50;99.90;;;;;;5015156;28;20435;-78
2023/01/09 10:43:08;;;;;;;3.60;1.80;;;10.50;99.90;;;;;;5017314;28;20498;-78
2023/01/09 10:45:46;;;;;;;3.70;2.00;;;10.50;99.90;;;;;;5017948;28;20466;-79
2023/01/09 10:48:34;;;;;;;4.53;1.57;;;10.60;99.90;;;;;;5014352;28;20514;-75
2023/01/09 10:51:01;;;;;;;5.27;1.30;;;10.70;99.90;;;;;;5019024;28;20435;-74
2023/01/09 10:53:39;;;;;;;1.50;1.20;;;10.80;99.90;;;;;;5013250;28;20444;-74
2023/01/09 10:56:14;;;;;;;4.70;1.93;;;10.90;99.90;;;;;;5015808;28;20457;-72
2023/01/09 10:58:39;;;;;;;3.50;1.40;;;10.80;99.90;;;;;;5018245;28;20955;-76
2023/01/09 11:01:07;;;;;;;2.63;1.43;;;10.80;99.90;;;;;;5017523;28;20450;-76
2023/01/09 11:03:33;;;;;;;3.50;1.50;;;10.90;99.90;;;;;;5016279;28;20180;-72
2023/01/09 11:06:00;;;;;;;4.23;1.70;;;11.00;99.90;;;;;;5015557;28;20473;-72
2023/01/09 11:08:40;;;;;;;3.57;1.57;;;11.00;99.90;;;;;;5016757;28;20221;-72
2023/01/09 11:11:08;;;;;;;4.73;1.60;;;11.00;99.90;;;;;;5012770;28;20439;-72
2023/01/09 11:13:37;;;;;;;7.40;2.20;;;11.00;99.90;;;;;;5013399;28;20477;-72
2023/01/09 11:16:19;;;;;;;4.73;1.70;;;11.10;99.90;;;;;;5015847;28;20450;-72
2023/01/09 11:18:57;;;;;;;2.87;1.30;;;11.10;99.90;;;;;;5014908;28;20457;-71
2023/01/09 11:21:38;;;;;;;3.03;1.57;;;10.90;99.90;;;;;;5013282;28;20431;-72
2023/01/09 11:24:24;;;;;;;7.17;1.57;;;10.80;99.90;;;;;;5016801;28;20447;-74
2023/01/09 11:26:52;;;;;;;2.83;1.60;;;10.60;99.90;;;;;;5014895;28;20463;-74
2023/01/09 11:29:24;;;;;;;3.40;1.10;;;10.60;99.90;;;;;;5016606;28;20471;-74
2023/01/09 11:31:53;;;;;;;6.30;1.50;;;10.50;99.90;;;;;;5014912;28;20450;-75
2023/01/09 11:34:24;;;;;;;6.30;1.50;;;10.30;99.90;;;;;;5013542;28;20756;-73
2023/01/09 11:37:08;;;;;;;3.60;1.57;;;10.20;99.90;;;;;;5016406;28;20463;-73
2023/01/09 11:39:40;;;;;;;4.03;1.43;;;9.90;99.90;;;;;;5014806;28;20443;-73
2023/01/09 11:42:17;;;;;;;4.17;1.47;;;9.70;99.90;;;;;;5012355;28;21563;-73
2023/01/09 11:44:42;;;;;;;5.03;1.50;;;9.60;99.90;;;;;;5011907;28;20435;-75
2023/01/09 11:47:37;;;;;;;4.27;1.30;;;9.50;99.90;;;;;;5009022;28;20473;-72
2023/01/09 11:50:22;;;;;;;3.70;1.40;;;9.50;99.90;;;;;;5014994;28;20204;-75
2023/01/09 11:53:08;;;;;;;5.30;1.53;;;9.40;99.90;;;;;;5008364;28;20659;-75
2023/01/09 11:55:34;;;;;;;7.77;1.90;;;9.60;99.90;;;;;;5014713;28;20432;-75
2023/01/09 11:57:59;;;;;;;4.07;1.60;;;9.60;99.90;;;;;;5011930;28;20439;-75
2023/01/09 12:00:29;;;;;;;4.40;1.57;;;9.60;99.90;;;;;;5016856;28;20181;-77
2023/01/09 12:03:06;;;;;;;5.97;1.43;;;9.60;99.90;;;;;;5018536;28;20185;-78
2023/01/09 12:05:42;;;;;;;3.40;1.50;;;9.70;99.90;;;;;;5011981;28;20822;-77
2023/01/09 12:08:25;;;;;;;3.73;1.50;;;9.90;99.90;;;;;;5012670;28;20847;-76
2023/01/09 12:11:15;;;;;;;2.17;1.20;;;10.00;99.90;;;;;;5017214;28;20497;-73
2023/01/09 12:13:48;;;;;;;3.93;1.57;;;10.10;99.90;;;;;;5015369;28;20423;-78
2023/01/09 12:16:22;;;;;;;2.83;1.47;;;10.20;99.90;;;;;;5016425;28;20446;-79
2023/01/09 12:19:00;;;;;;;4.70;1.80;;;10.20;99.90;;;;;;5012835;28;20416;-77
2023/01/09 12:21:43;;;;;;;3.03;1.80;;;10.20;99.90;;;;;;5020901;28;21075;-75
2023/01/09 12:24:31;;;;;;;3.90;1.60;;;10.20;99.90;;;;;;5016092;28;20458;-76
2023/01/09 12:27:18;;;;;;;4.03;1.47;;;10.20;99.90;;;;;;5021328;28;20460;-76
2023/01/09 12:30:14;;;;;;;2.43;1.37;;;10.10;99.90;;;;;;5022008;28;20466;-74
2023/01/09 12:33:09;;;;;;;4.93;2.27;;;9.90;99.90;;;;;;5018741;28;20419;-74
2023/01/09 12:35:59;;;;;;;5.20;1.87;;;10.00;99.90;;;;;;5020740;28;20446;-78
2023/01/09 12:38:40;;;;;;;5.03;1.70;;;9.90;99.90;;;;;;5018683;28;20429;-77
2023/01/09 12:41:16;;;;;;;4.20;1.90;;;9.90;99.90;;;;;;5023066;28;20442;-76
2023/01/09 12:44:03;;;;;;;4.07;1.73;;;9.80;99.90;;;;;;5018826;28;20789;-76
2023/01/09 12:46:42;;;;;;;4.27;2.00;;;9.80;99.90;;;;;;5016629;28;20450;-76
2023/01/09 12:49:13;;;;;;;4.43;1.60;;;9.80;99.90;;;;;;5018358;28;20457;-77
2023/01/09 12:51:42;;;;;;;9.20;1.90;;;9.80;99.90;;;;;;5016517;28;20759;-79
2023/01/09 12:54:43;;;;;;;5.83;1.60;;;9.80;99.90;;;;;;5016636;28;21129;-75
2023/01/09 12:57:24;;;;;;;2.43;1.57;;;10.00;99.90;;;;;;4992199;28;20451;-74
2023/01/09 12:59:57;;;;;;;6.33;1.50;;;10.20;99.90;;;;;;5015275;28;20585;-72
2023/01/09 13:02:26;;;;;;;4.40;2.03;;;10.10;99.90;;;;;;5016587;28;20547;-72
2023/01/09 13:04:59;;;;;;;5.93;1.73;;;10.30;99.90;;;;;;5019805;28;20435;-72
2023/01/09 13:07:41;;;;;;;3.00;1.33;;;10.30;99.90;;;;;;5019600;28;20447;-73
2023/01/09 13:10:29;;;;;;;5.80;1.50;;;10.20;99.90;;;;;;5020642;28;20488;-75
2023/01/09 13:12:57;;;;;;;5.10;1.63;;;10.10;99.90;;;;;;5021177;28;20446;-71
2023/01/09 13:15:35;;;;;;;3.57;2.00;;;10.00;99.90;;;;;;5020841;28;20435;-73
2023/01/09 13:18:11;;;;;;;5.73;1.60;;;10.00;99.90;;;;;;5020188;28;20430;-72
2023/01/09 13:20:42;;;;;;;3.73;1.70;;;10.00;99.90;;;;;;5021523;28;20779;-73
2023/01/09 13:23:17;;;;;;;9.77;3.97;;;9.90;99.90;;;;;;5016487;28;20454;-71
2023/01/09 13:25:52;;;;;;;6.10;2.03;;;9.90;99.90;;;;;;5023837;28;20808;-72